Nearby METAR Reports

 

KSJC - San Jose, California, USA
Distance from station: NE 9mi, 14km
Updated: Tue, 21-Jan-2020 3:53am PST
Partly cloudy
Partly cloudy
 Wind from SE
Wind: SE 6 mph , 9 km/h
Temperature: 48°F , 9°C
Wind Chill: 45°F , 7°C
Dew Point: 45°F , 7°C
Humidity: 87%
Barometer: 30.10 inHg , 1019.3 hPa
Clouds: Partly cloudy
Visibility: 10 miles , 16 km
Cloud details: Partly cloudy 3100 ft
2020/01/21 11:53 KSJC 211153Z AUTO 14005KT 10SM SCT031 09/07 A3010 RMK AO2 SLP192 T00940072 10106 20078 50003 $
KNUQ - Moffett Nas/Mtn, California, USA
Distance from station: N 9mi, 14km
Updated: Thu, 21-Nov-2019 8:56am PST
NOT Current

 
Barometer: 29.86 inHg , 1011.2 hPa
2019/11/21 16:56 KNUQ 211656Z AUTO A2986 RMK AO2 SLP116 PWINO $
KPAO - Palo Alto, California, USA
Distance from station: NNW 14mi, 23km
Updated: Mon, 20-Jan-2020 8:47pm PST
NOT Current
Partly cloudy
Partly cloudy
 Wind from ESE
Wind: ESE 3 mph , 6 km/h
Temperature: 46°F , 8°C
Dew Point: 43°F , 6°C
Humidity: 87%
Barometer: 30.05 inHg , 1017.6 hPa
Clouds: Partly cloudy
Visibility: 10 miles , 16 km
Cloud details: Few Clouds 3000 ft
Partly cloudy 7000 ft
2020/01/21 04:47 KPAO 210447Z 12003KT 10SM FEW030 SCT070 08/06 A3005 RMK LAST
 
KRHV - San Jose/Reid, California, USA
Distance from station: ENE 12mi, 19km
Updated: Mon, 20-Jan-2020 9:47pm PST
NOT Current
Few Clouds
Few Clouds
 Wind from SSE
Wind: SSE 3 mph , 6 km/h
Temperature: 50°F , 10°C
Dew Point: 46°F , 8°C
Humidity: 88%
Barometer: 30.07 inHg , 1018.3 hPa
Clouds: Few Clouds
Visibility: 10 miles , 16 km
Cloud details: Few Clouds 7000 ft
2020/01/21 05:47 KRHV 210547Z 16003KT 10SM FEW070 10/08 A3007 RMK LAST
KOAK - Oakland, California, USA
Distance from station: NNW 31mi, 50km
Updated: Tue, 21-Jan-2020 3:53am PST
Overcast
Overcast
 Wind from ESE
Wind: ESE 7 mph , 11 km/h
Temperature: 52°F , 11°C
Dew Point: 45°F , 7°C
Humidity: 77%
Barometer: 30.09 inHg , 1019 hPa
Clouds: Overcast
Visibility: 10 miles , 16 km
Cloud details: Few Clouds 1500 ft
Mostly cloudy 9000 ft
Overcast 16000 ft
2020/01/21 11:53 KOAK 211153Z 11006KT 10SM FEW015 BKN090 OVC160 11/07 A3009 RMK AO2 SLP190 T01060072 10122 20078 58003
KSQL - San Carlos Airpo, California, USA
Distance from station: NW 21mi, 34km
Updated: Tue, 21-Jan-2020 3:55am PST
Overcast
Overcast
 Wind from calm
Wind: Calm
Temperature: 48°F , 9°C
Dew Point: 45°F , 7°C
Humidity: 87%
Barometer: 30.09 inHg , 1019 hPa
Clouds: Overcast
Visibility: 10 miles , 16 km
Cloud details: Partly cloudy 7000 ft
Overcast 9000 ft
2020/01/21 11:55 KSQL 211155Z AUTO 00000KT 10SM SCT070 OVC090 09/07 A3009 RMK AO2
 
KSFO - San Francisco, California, USA
Distance from station: NW 30mi, 49km
Updated: Tue, 21-Jan-2020 3:56am PST
Mostly cloudy
Mostly cloudy
 Wind from SE
Wind: SE 10 mph , 17 km/h
Temperature: 52°F , 11°C
Dew Point: 45°F , 7°C
Humidity: 77%
Barometer: 30.07 inHg , 1018.3 hPa
Clouds: Mostly cloudy
Visibility: 10 miles , 16 km
Cloud details: Few Clouds 4800 ft
Partly cloudy 8500 ft
Mostly cloudy 13000 ft
2020/01/21 11:56 KSFO 211156Z 13009KT 10SM FEW048 SCT085 BKN130 11/07 A3007 RMK AO2 SLP183 T01110072 10128 20111 58003
KE16 - San Martin, California, USA
Distance from station: ESE 27mi, 43km
Updated: Thu, 14-Nov-2019 1:35am PST
NOT Current
Overcast
Overcast
 Wind from SE
Wind: SE 7 mph , 11 km/h
Temperature: 54°F , 12°C
Dew Point: 50°F , 10°C
Humidity: 88%
Barometer: 30.05 inHg , 1017.6 hPa
Clouds: Overcast
Visibility: 10 miles , 16 km
Cloud details: Overcast 1400 ft
2019/11/14 09:35 KE16 140935Z AUTO 13006KT 10SM OVC014 12/10 A3005 RMK AO2
KWVI - Watsonville, California, USA
Distance from station: SSE 27mi, 44km
Updated: Tue, 21-Jan-2020 3:53am PST
Few Clouds
Few Clouds
 Wind from calm
Wind: Calm
Temperature: 48°F , 9°C
Dew Point: 46°F , 8°C
Humidity: 94%
Barometer: 30.13 inHg , 1020.3 hPa
Clouds: Few Clouds
Visibility: 10 miles , 16 km
Cloud details: Few Clouds 1100 ft
Few Clouds 2800 ft
2020/01/21 11:53 KWVI 211153Z AUTO 00000KT 10SM FEW011 FEW028 09/08 A3013 RMK AO2 SLP201 60000 T00890078 10111 20078 50006
 
KHAF - Half Moon Bay, California, USA
Distance from station: WNW 31mi, 50km
Updated: Tue, 21-Jan-2020 3:55am PST
Mist, Overcast
Mist, Overcast
 Wind from SSE
Wind: SSE 10 mph , 17 km/h
Temperature: 52°F , 11°C
Dew Point: 48°F , 9°C
Humidity: 88%
Barometer: 30.09 inHg , 1019 hPa
Summary: Mist
Clouds: Overcast
Visibility: 6 miles , 10 km
Cloud details: Mostly cloudy 1200 ft
Overcast 3900 ft
2020/01/21 11:55 KHAF 211155Z AUTO 15009KT 6SM BR BKN012 OVC039 11/09 A3009 RMK AO2
KHWD - Hayward, California, USA
Distance from station: N 28mi, 44km
Updated: Tue, 21-Jan-2020 3:54am PST
Mostly cloudy
Mostly cloudy
 Wind from SSE
Wind: SSE 8 mph , 13 km/h
Temperature: 50°F , 10°C
Wind Chill: 47°F , 8°C
Dew Point: 45°F , 7°C
Humidity: 82%
Barometer: 30.09 inHg , 1019 hPa
Clouds: Mostly cloudy
Visibility: 10 miles , 16 km
Cloud details: Mostly cloudy 9000 ft
2020/01/21 11:54 KHWD 211154Z 15007KT 10SM BKN090 10/07 A3009 RMK AO2 SLP197 T01000072 10100 20072 58000
KLVK - Livermore, California, USA
Distance from station: NNE 31mi, 51km
Updated: Tue, 21-Jan-2020 3:53am PST
Mostly cloudy
Mostly cloudy
 Wind from calm
Wind: Calm
Temperature: 46°F , 8°C
Dew Point: 43°F , 6°C
Humidity: 87%
Barometer: 30.09 inHg , 1019 hPa
Clouds: Mostly cloudy
Visibility: 10 miles , 16 km
Cloud details: Mostly cloudy 3000 ft
2020/01/21 11:53 KLVK 211153Z AUTO 00000KT 10SM BKN030 08/06 A3009 RMK AO2 SLP187 T00830061 10100 20061 50003